Nome, AK

1:51 PM AKDT on April 18, 2015 (GMT -0800)
BA Airport | | Change Station
CLOSE
Current Station
Personal Weather Station
Location: Nome, AK
Elevation: 37 ft
Nearby Weather Stations

Elev 37 ft 64.51 °N, 165.45 °W | Updated 1 minute ago

Overcast
Overcast
28.4 °F
Feels Like 16 °F
N
18.0
Wind Variable Wind from NNE
Gusts 18.0 mph

Today
High -- | Low -- °F
--% Chance of Precip.
Yesterday
High -- | Low -- °F
Precip. -- in
7:17 AM 10:46 PM
New Moon, 0% visible
Pressure 29.49 in
Visibility 10.0 miles
Clouds Scattered Clouds 2000 ft
Mostly Cloudy 3900 ft
Overcast 5000 ft
Windchill 16 °F
Dew Point 22 °F
Humidity 75%
Rainfall 0.00 in
Snow Depth Not available.
UV 1 out of 12
Pollen Not available.
Air Quality Not available.
Flu Activity Sporadic
METAR PAOM 182053Z 03019KT 10SM SCT020 BKN039 OVC050 M04/M08 A2948 RMK PK WND 03029/2023 SNE21 SLP984 P0000 60000 T10391078 56023 VIA AUTODIAL

More Conditions Fewer Conditions

Pressure 29.49 in
Visibility 10.0 miles
Clouds Scattered Clouds 2000 ft
Mostly Cloudy 3900 ft
Overcast 5000 ft
Windchill 16 °F
Dew Point 22 °F
Humidity 75%
Rainfall 0.00 in
Snow Depth Not available.
UV 1 out of 12
Pollen Not available.
Air Quality Not available.
Flu Activity Sporadic
METAR PAOM 182053Z 03019KT 10SM SCT020 BKN039 OVC050 M04/M08 A2948 RMK PK WND 03029/2023 SNE21 SLP984 P0000 60000 T10391078 56023 VIA AUTODIAL

More Conditions Fewer Conditions

10-Day Weather Forecast

Almanac

Astronomy

Apr. 18, 2015 Rise Set
Actual Time
Civil Twilight
Nautical Twilight
Astronomical Twilight
Moon
Length of Visible Light
Length of Day
Tomorrow will be .
, % of the Moon is Illuminated

Today's Extremes

State Highs State Lows

Community

WunderPhotos

Upload Photos

1,814,538 photos uploaded!

WunderBlogs® & News

Nearby

Air Quality

  Air Quality AQ Index Pollutant
Not available.

Snow Depth

Station Depth Elevation

Earthquake Activity

City Distance Mag. Time & Date
Minimum magnitude displayed is 2.5.

Coastal Water Temperatures

Place Temperature

Stations

Nearby Weather Stations

Station Location Temp. Windchill Dew Point Humidity Wind Precip. Elev Updated Type